createdAt,value
2017-08-14T00:01:14.711Z,7.87
2017-08-14T00:03:42.251Z,5.37
2017-08-14T00:06:09.799Z,9.03
2017-08-14T00:08:37.323Z,7.30
2017-08-14T00:11:04.871Z,6.07
2017-08-14T00:13:32.395Z,6.60
2017-08-14T00:15:59.941Z,7.37
2017-08-14T00:18:27.461Z,6.97
2017-08-14T00:20:55.006Z,8.73
2017-08-14T00:23:22.520Z,8.17
2017-08-14T00:25:50.061Z,10.10
2017-08-14T00:28:17.584Z,8.50
2017-08-14T00:30:45.117Z,7.23
2017-08-14T00:33:12.651Z,8.40
2017-08-14T00:35:40.189Z,8.03
2017-08-14T00:38:07.730Z,7.87
2017-08-14T00:40:35.246Z,7.97
2017-08-14T00:43:02.776Z,7.30
2017-08-14T00:45:30.308Z,8.37
2017-08-14T00:47:57.841Z,6.93
2017-08-14T00:50:25.367Z,8.03
2017-08-14T00:52:52.912Z,7.93
2017-08-14T00:55:20.475Z,8.67
2017-08-14T00:57:48.031Z,10.00
2017-08-14T01:00:15.562Z,7.53
2017-08-14T01:02:43.125Z,8.90
2017-08-14T01:05:10.662Z,9.87
2017-08-14T01:07:38.208Z,9.00
2017-08-14T01:10:05.748Z,8.77
2017-08-14T01:12:34.092Z,11.83
2017-08-14T01:15:01.613Z,9.13
2017-08-14T01:17:29.155Z,9.57
2017-08-14T01:19:56.684Z,9.70
2017-08-14T01:22:24.243Z,10.57
2017-08-14T01:24:51.774Z,9.27
2017-08-14T01:27:19.330Z,11.07
2017-08-14T01:29:46.845Z,9.97
2017-08-14T01:32:14.378Z,9.70
2017-08-14T01:34:41.913Z,9.43
2017-08-14T01:37:09.439Z,9.47
2017-08-14T01:39:37.006Z,8.50
2017-08-14T01:42:04.538Z,12.63
2017-08-14T01:44:32.072Z,8.03
2017-08-14T01:46:59.715Z,9.03
2017-08-14T01:49:27.267Z,8.93
2017-08-14T01:51:54.782Z,9.60
2017-08-14T01:54:22.327Z,8.80
2017-08-14T01:56:49.841Z,9.27
2017-08-14T01:59:17.381Z,9.17
2017-08-14T02:01:45.666Z,8.37
2017-08-14T02:04:13.214Z,8.30
2017-08-14T02:06:40.734Z,8.20
2017-08-14T02:09:08.270Z,8.40
2017-08-14T02:11:35.795Z,8.63
2017-08-14T02:14:03.357Z,9.50
2017-08-14T02:16:31.657Z,10.23
2017-08-14T02:18:59.199Z,9.03
2017-08-14T02:21:26.726Z,7.40
2017-08-14T02:23:54.269Z,7.73
2017-08-14T02:26:21.795Z,7.17
2017-08-14T02:28:49.333Z,5.93
2017-08-14T02:31:17.621Z,8.43
2017-08-14T02:33:45.157Z,6.63
2017-08-14T02:36:12.692Z,7.50
2017-08-14T02:38:40.238Z,6.73
2017-08-14T02:41:07.760Z,6.53
2017-08-14T02:43:35.319Z,5.70
2017-08-14T02:46:02.841Z,5.47
2017-08-14T02:48:30.359Z,5.47
2017-08-14T02:50:57.902Z,5.93
2017-08-14T02:53:25.434Z,5.83
2017-08-14T02:55:52.970Z,5.23
2017-08-14T02:58:20.546Z,5.37
2017-08-14T03:00:48.133Z,5.00
2017-08-14T03:03:15.659Z,5.87
2017-08-14T03:05:43.202Z,5.07
2017-08-14T03:08:10.729Z,4.50
2017-08-14T03:10:38.279Z,4.27
2017-08-14T03:13:05.824Z,4.30
2017-08-14T03:15:33.373Z,4.30
2017-08-14T03:18:00.891Z,6.97
2017-08-14T03:20:28.421Z,4.77
2017-08-14T03:22:55.946Z,5.03
2017-08-14T03:25:23.467Z,4.77
2017-08-14T03:27:51.010Z,4.97
2017-08-14T03:30:18.530Z,5.23
2017-08-14T03:32:46.065Z,8.70
2017-08-14T03:35:13.585Z,4.93
2017-08-14T03:37:41.125Z,4.73
2017-08-14T03:40:09.422Z,5.50
2017-08-14T03:42:36.962Z,5.10
2017-08-14T03:45:04.484Z,4.00
2017-08-14T03:47:32.027Z,5.40
2017-08-14T03:49:59.580Z,4.37
2017-08-14T03:52:27.147Z,5.47
2017-08-14T03:54:54.675Z,5.97
2017-08-14T03:57:22.209Z,5.23
2017-08-14T03:59:49.733Z,5.23
2017-08-14T04:02:17.283Z,4.80
2017-08-14T04:04:44.808Z,5.17
2017-08-14T04:07:13.107Z,4.63
2017-08-14T04:09:40.648Z,8.30
2017-08-14T04:12:08.202Z,5.27
2017-08-14T04:14:35.730Z,6.03
2017-08-14T04:17:03.274Z,5.50
2017-08-14T04:19:30.789Z,4.80
2017-08-14T04:21:58.346Z,5.47
2017-08-14T04:24:26.644Z,6.47
2017-08-14T04:26:54.182Z,5.63
2017-08-14T04:29:21.706Z,5.40
2017-08-14T04:31:49.226Z,6.33
2017-08-14T04:34:16.761Z,6.00
2017-08-14T04:36:44.290Z,5.77
2017-08-14T04:39:11.843Z,7.80
2017-08-14T04:41:39.374Z,5.40
2017-08-14T04:44:06.915Z,5.83
2017-08-14T04:46:34.443Z,6.20
2017-08-14T04:49:01.987Z,6.27
2017-08-14T04:51:29.518Z,5.57
2017-08-14T04:53:57.064Z,5.20
2017-08-14T04:56:24.593Z,6.30
2017-08-14T04:58:52.181Z,8.63
2017-08-14T05:01:19.702Z,6.10
2017-08-14T05:03:47.235Z,6.30
2017-08-14T05:06:14.773Z,6.00
2017-08-14T05:08:42.292Z,5.20
2017-08-14T05:11:09.851Z,4.37
2017-08-14T05:13:37.382Z,5.13
2017-08-14T05:16:04.931Z,5.03
2017-08-14T05:18:32.473Z,5.20
2017-08-14T05:21:00.111Z,5.63
2017-08-14T05:23:27.628Z,4.50
2017-08-14T05:25:55.194Z,5.67
2017-08-14T05:28:22.726Z,5.10
2017-08-14T05:30:50.249Z,8.40
2017-08-14T05:33:17.785Z,6.47
2017-08-14T05:35:45.306Z,5.90
2017-08-14T05:38:12.872Z,7.07
2017-08-14T05:40:40.407Z,7.77
2017-08-14T05:43:07.951Z,8.33
2017-08-14T05:45:35.481Z,6.43
2017-08-14T05:48:03.046Z,6.47
2017-08-14T05:50:30.580Z,7.63
2017-08-14T05:52:58.115Z,7.07
2017-08-14T05:55:25.658Z,5.93
2017-08-14T05:57:53.183Z,10.20
2017-08-14T06:00:20.740Z,7.23
2017-08-14T06:02:48.273Z,8.40
2017-08-14T06:05:15.826Z,4.87
2017-08-14T06:07:43.375Z,4.63
2017-08-14T06:10:10.962Z,4.33
2017-08-14T06:12:38.502Z,13.30
2017-08-14T06:15:06.036Z,4.40
2017-08-14T06:17:33.608Z,5.80
2017-08-14T06:20:01.148Z,4.47
2017-08-14T06:22:28.695Z,5.97
2017-08-14T06:24:56.228Z,6.50
2017-08-14T06:27:23.788Z,5.73
2017-08-14T06:29:51.318Z,5.80
2017-08-14T06:32:18.897Z,4.60
2017-08-14T06:34:46.482Z,6.10
2017-08-14T06:37:14.086Z,4.77
2017-08-14T06:39:41.660Z,6.50
2017-08-14T06:42:09.335Z,3.43
2017-08-14T06:44:37.001Z,5.70
2017-08-14T06:47:04.563Z,8.43
2017-08-14T06:49:32.196Z,3.00
2017-08-14T06:51:59.883Z,2.77
2017-08-14T06:54:27.473Z,3.63
2017-08-14T06:56:55.011Z,4.13
2017-08-14T06:59:22.613Z,4.73
2017-08-14T07:01:50.184Z,2.87
2017-08-14T07:04:17.779Z,5.30
2017-08-14T07:06:45.359Z,3.90
2017-08-14T07:09:12.939Z,3.90
2017-08-14T07:11:40.523Z,5.30
2017-08-14T07:14:08.903Z,5.70
2017-08-14T07:16:36.492Z,3.70
2017-08-14T07:19:04.060Z,5.33
2017-08-14T07:21:31.646Z,2.97
2017-08-14T07:23:59.276Z,3.50
2017-08-14T07:26:26.865Z,3.77
2017-08-14T07:28:54.473Z,2.97
2017-08-14T07:31:22.057Z,4.13
2017-08-14T07:33:49.710Z,2.80
2017-08-14T07:36:17.293Z,2.57
2017-08-14T07:38:44.842Z,4.07
2017-08-14T07:41:12.410Z,4.70
2017-08-14T07:43:40.053Z,2.57
2017-08-14T07:46:07.615Z,3.00
2017-08-14T07:48:35.177Z,2.97
2017-08-14T07:51:02.831Z,2.40
2017-08-14T07:53:30.377Z,4.87
2017-08-14T07:55:58.721Z,3.93
2017-08-14T07:58:26.264Z,3.47
2017-08-14T08:00:53.889Z,3.57
2017-08-14T08:03:22.225Z,4.17
2017-08-14T08:05:49.815Z,3.30
2017-08-14T08:08:18.221Z,3.10
2017-08-14T08:10:45.775Z,5.27
2017-08-14T08:13:13.437Z,3.17
2017-08-14T08:15:41.045Z,3.83
2017-08-14T08:18:08.591Z,4.53
2017-08-14T08:20:36.156Z,4.53
2017-08-14T08:23:03.766Z,5.53
2017-08-14T08:25:31.352Z,4.82
2017-08-14T08:27:58.967Z,5.15
2017-08-14T08:30:26.616Z,2.60
2017-08-14T08:32:54.185Z,2.78
2017-08-14T08:35:21.745Z,3.30
2017-08-14T08:37:49.286Z,3.08
2017-08-14T08:40:16.853Z,4.12
2017-08-14T08:42:44.434Z,5.43
2017-08-14T08:45:11.967Z,4.60
2017-08-14T08:47:39.540Z,2.00
2017-08-14T08:50:07.081Z,2.45
2017-08-14T08:52:34.714Z,2.72
2017-08-14T08:55:02.283Z,2.10
2017-08-14T08:57:29.956Z,2.40
2017-08-14T08:59:57.521Z,2.25
2017-08-14T09:02:25.098Z,3.17
2017-08-14T09:04:52.663Z,3.03
2017-08-14T09:07:20.286Z,2.30
2017-08-14T09:09:47.896Z,2.60
2017-08-14T09:12:15.438Z,2.85
2017-08-14T09:14:42.994Z,4.35
2017-08-14T09:17:10.574Z,3.05
2017-08-14T09:19:38.144Z,2.97
2017-08-14T09:22:05.764Z,2.95
2017-08-14T09:24:33.336Z,4.05
2017-08-14T09:27:00.906Z,2.83
2017-08-14T09:29:28.471Z,1.70
2017-08-14T09:31:56.128Z,4.10
2017-08-14T09:34:23.694Z,3.33
2017-08-14T09:36:51.250Z,5.62
2017-08-14T09:39:18.861Z,5.55
2017-08-14T09:41:46.382Z,3.58
2017-08-14T09:44:14.040Z,2.55
2017-08-14T09:46:41.612Z,2.55
2017-08-14T09:49:09.167Z,1.95
2017-08-14T09:51:36.747Z,1.67
2017-08-14T09:54:04.289Z,2.62
2017-08-14T09:56:31.852Z,2.33
2017-08-14T09:58:59.391Z,2.28
2017-08-14T10:01:27.015Z,2.83
2017-08-14T10:03:54.581Z,4.78
2017-08-14T10:06:22.150Z,2.65
2017-08-14T10:08:49.693Z,3.03
2017-08-14T10:11:17.257Z,1.75
2017-08-14T10:13:44.800Z,2.22
2017-08-14T10:16:13.402Z,2.03
2017-08-14T10:18:42.305Z,2.25
2017-08-14T10:21:09.860Z,3.30
2017-08-14T10:23:37.409Z,2.50
2017-08-14T10:26:04.980Z,2.83
2017-08-14T10:28:32.526Z,2.22
2017-08-14T10:31:00.088Z,2.10
2017-08-14T10:33:27.638Z,2.33
2017-08-14T10:35:55.952Z,3.85
2017-08-14T10:38:23.487Z,4.07
2017-08-14T10:40:51.033Z,3.00
2017-08-14T10:43:18.576Z,2.33
2017-08-14T10:45:46.124Z,2.75
2017-08-14T10:48:13.675Z,4.32
2017-08-14T10:50:41.221Z,3.53
2017-08-14T10:53:08.770Z,3.22
2017-08-14T10:55:36.326Z,4.45
2017-08-14T10:58:03.885Z,5.07
2017-08-14T11:00:31.431Z,2.03
2017-08-14T11:02:58.997Z,4.15
2017-08-14T11:05:26.527Z,3.62
2017-08-14T11:07:54.071Z,5.28
2017-08-14T11:10:21.599Z,3.12
2017-08-14T11:12:49.164Z,2.87
2017-08-14T11:15:16.701Z,3.50
2017-08-14T11:17:44.246Z,2.60
2017-08-14T11:20:11.776Z,2.83
2017-08-14T11:22:39.326Z,2.58
2017-08-14T11:25:06.868Z,2.42
2017-08-14T11:27:34.428Z,2.10
2017-08-14T11:30:02.091Z,2.58
2017-08-14T11:32:29.615Z,2.78
2017-08-14T11:34:57.927Z,2.58
2017-08-14T11:37:25.452Z,3.03
2017-08-14T11:39:53.005Z,2.40
2017-08-14T11:42:20.564Z,1.87
2017-08-14T11:44:48.887Z,3.20
2017-08-14T11:47:16.413Z,1.77
2017-08-14T11:49:44.732Z,2.60
2017-08-14T11:52:12.263Z,2.12
2017-08-14T11:54:39.831Z,1.87
2017-08-14T11:57:07.390Z,2.45
2017-08-14T11:59:34.969Z,3.58
2017-08-14T12:02:02.509Z,2.50
2017-08-14T12:04:30.065Z,4.12
2017-08-14T12:06:57.586Z,2.35
2017-08-14T12:09:25.160Z,2.37
2017-08-14T12:11:52.678Z,2.00
2017-08-14T12:14:20.302Z,2.62
2017-08-14T12:16:47.834Z,2.47
2017-08-14T12:19:15.388Z,2.92
2017-08-14T12:21:42.921Z,2.40
2017-08-14T12:24:10.460Z,2.33
2017-08-14T12:26:39.139Z,2.37
2017-08-14T12:29:06.677Z,2.20
2017-08-14T12:31:34.233Z,3.00
2017-08-14T12:34:02.664Z,2.85
2017-08-14T12:36:30.220Z,2.58
2017-08-14T12:38:57.737Z,2.20
2017-08-14T12:41:25.289Z,3.95
2017-08-14T12:43:52.824Z,2.10
2017-08-14T12:46:20.387Z,2.30
2017-08-14T12:48:47.917Z,3.00
2017-08-14T12:51:15.464Z,2.47
2017-08-14T12:53:42.995Z,3.17
2017-08-14T12:56:11.352Z,2.15
2017-08-14T12:58:38.978Z,2.30
2017-08-14T13:01:06.496Z,2.30
2017-08-14T13:03:34.034Z,2.17
2017-08-14T13:06:01.564Z,2.35
2017-08-14T13:08:29.120Z,3.33
2017-08-14T13:10:56.679Z,2.10
2017-08-14T13:13:24.217Z,2.42
2017-08-14T13:15:51.752Z,2.83
2017-08-14T13:18:19.300Z,1.90
2017-08-14T13:20:46.823Z,2.50
2017-08-14T13:23:14.404Z,2.60
2017-08-14T13:25:41.939Z,2.28
2017-08-14T13:28:09.482Z,1.95
2017-08-14T13:30:37.007Z,2.65
2017-08-14T13:33:04.560Z,1.98
2017-08-14T13:35:32.082Z,2.40
2017-08-14T13:37:59.627Z,2.22
2017-08-14T13:40:27.160Z,2.97
2017-08-14T13:42:54.712Z,3.45
2017-08-14T13:45:22.244Z,2.72
2017-08-14T13:47:49.792Z,2.30
2017-08-14T13:50:17.333Z,3.45
2017-08-14T13:52:44.898Z,2.78
2017-08-14T13:55:12.426Z,4.85
2017-08-14T13:57:39.967Z,2.47
2017-08-14T14:00:07.501Z,2.17
2017-08-14T14:02:35.059Z,2.45
2017-08-14T14:05:02.591Z,2.75
2017-08-14T14:07:30.126Z,2.22
2017-08-14T14:09:57.671Z,2.80
2017-08-14T14:12:25.203Z,2.40
2017-08-14T14:14:52.751Z,2.95
2017-08-14T14:17:20.284Z,2.75
2017-08-14T14:19:47.832Z,2.40
2017-08-14T14:22:15.377Z,3.12
2017-08-14T14:24:42.923Z,2.60
2017-08-14T14:27:10.455Z,1.90
2017-08-14T14:29:38.021Z,3.10
2017-08-14T14:32:05.561Z,3.80
2017-08-14T14:34:33.094Z,2.63
2017-08-14T14:37:00.628Z,3.63
2017-08-14T14:39:28.178Z,2.77
2017-08-14T14:41:55.704Z,4.23
2017-08-14T14:44:23.237Z,3.60
2017-08-14T14:46:50.775Z,2.27
2017-08-14T14:49:19.097Z,2.97
2017-08-14T14:51:46.625Z,2.30
2017-08-14T14:54:14.187Z,3.13
2017-08-14T14:56:41.726Z,3.00
2017-08-14T14:59:10.036Z,3.03
2017-08-14T15:01:37.587Z,2.60
2017-08-14T15:04:05.129Z,2.20
2017-08-14T15:06:32.692Z,3.73
2017-08-14T15:09:00.991Z,2.53
2017-08-14T15:11:28.544Z,2.83
2017-08-14T15:13:56.094Z,2.57
2017-08-14T15:16:24.423Z,3.70
2017-08-14T15:18:51.957Z,3.73
2017-08-14T15:21:19.519Z,3.00
2017-08-14T15:23:47.095Z,2.57
2017-08-14T15:26:14.651Z,2.77
2017-08-14T15:28:42.183Z,2.50
2017-08-14T15:31:09.779Z,4.47
2017-08-14T15:33:37.329Z,3.40
2017-08-14T15:36:04.882Z,3.03
2017-08-14T15:38:32.415Z,2.30
2017-08-14T15:41:00.739Z,2.53
2017-08-14T15:43:28.297Z,1.90
2017-08-14T15:45:55.827Z,2.40
2017-08-14T15:48:23.382Z,2.27
2017-08-14T15:50:51.013Z,2.13
2017-08-14T15:53:18.572Z,2.47
2017-08-14T15:55:46.100Z,2.83
2017-08-14T15:58:13.666Z,2.50
2017-08-14T16:00:41.239Z,2.73
2017-08-14T16:03:08.801Z,5.00
2017-08-14T16:05:36.915Z,2.53
2017-08-14T16:08:04.496Z,2.70
2017-08-14T16:10:32.051Z,2.90
2017-08-14T16:12:59.741Z,2.30
2017-08-14T16:15:27.287Z,3.10
2017-08-14T16:17:54.840Z,2.90
2017-08-14T16:20:22.416Z,4.00
2017-08-14T16:22:49.942Z,3.57
2017-08-14T16:25:18.277Z,2.53
2017-08-14T16:27:45.828Z,2.93
2017-08-14T16:30:13.387Z,2.63
2017-08-14T16:32:40.927Z,2.97
2017-08-14T16:35:08.483Z,2.07
2017-08-14T16:37:36.010Z,2.77
2017-08-14T16:40:04.355Z,2.87
2017-08-14T16:42:31.903Z,2.97
2017-08-14T16:44:59.464Z,4.23
2017-08-14T16:47:27.018Z,3.17
2017-08-14T16:49:54.612Z,4.00
2017-08-14T16:52:22.168Z,3.53
2017-08-14T16:54:49.723Z,3.43
2017-08-14T16:57:17.286Z,6.13
2017-08-14T16:59:44.834Z,3.70
2017-08-14T17:02:12.365Z,3.10
2017-08-14T17:04:39.922Z,4.83
2017-08-14T17:07:07.485Z,4.10
2017-08-14T17:09:35.114Z,3.87
2017-08-14T17:12:02.751Z,2.87
2017-08-14T17:14:30.312Z,4.70
2017-08-14T17:16:57.859Z,4.90
2017-08-14T17:19:25.411Z,3.30
2017-08-14T17:21:52.964Z,3.27
2017-08-14T17:24:20.502Z,3.73
2017-08-14T17:26:48.067Z,3.60
2017-08-14T17:29:15.642Z,3.30
2017-08-14T17:31:43.216Z,3.37
2017-08-14T17:34:10.799Z,5.03
2017-08-14T17:36:38.357Z,3.43
2017-08-14T17:41:39.821Z,3.90
2017-08-14T17:44:07.381Z,3.57
2017-08-14T17:46:34.926Z,3.23
2017-08-14T17:49:02.472Z,5.23
2017-08-14T17:51:30.025Z,3.53
2017-08-14T17:53:57.576Z,4.10
2017-08-14T17:56:25.117Z,3.87
2017-08-14T17:58:52.693Z,4.37
2017-08-14T18:01:21.047Z,3.70
2017-08-14T18:03:48.603Z,4.67
2017-08-14T18:06:16.158Z,4.03
2017-08-14T18:08:43.688Z,4.47
2017-08-14T18:11:11.206Z,3.80
2017-08-14T18:13:38.766Z,3.93
2017-08-14T18:16:06.298Z,3.60
2017-08-14T18:18:33.881Z,4.80
2017-08-14T18:21:01.460Z,4.03
2017-08-14T18:23:29.006Z,4.87
2017-08-14T18:25:56.565Z,6.30
2017-08-14T18:28:24.138Z,3.63
2017-08-14T18:30:51.691Z,6.10
2017-08-14T18:33:20.125Z,3.33
2017-08-14T18:35:47.709Z,5.50
2017-08-14T18:38:15.282Z,5.50
2017-08-14T18:40:42.815Z,3.90
2017-08-14T18:43:10.374Z,5.40
2017-08-14T18:45:37.916Z,3.73
2017-08-14T18:48:05.473Z,4.57
2017-08-14T18:50:32.998Z,4.57
2017-08-14T18:53:00.546Z,4.13
2017-08-14T18:55:28.110Z,4.60
2017-08-14T18:57:55.661Z,4.27
2017-08-14T19:00:23.219Z,4.33
2017-08-14T19:02:50.754Z,4.37
2017-08-14T19:05:18.309Z,4.53
2017-08-14T19:07:46.328Z,5.20
2017-08-14T19:10:13.456Z,4.70
2017-08-14T19:12:41.013Z,5.23
2017-08-14T19:15:08.550Z,5.13
2017-08-14T19:17:36.106Z,4.50
2017-08-14T19:20:03.656Z,4.57
2017-08-14T19:22:31.213Z,4.27
2017-08-14T19:24:58.773Z,4.63
2017-08-14T19:27:26.299Z,4.10
2017-08-14T19:29:54.632Z,4.37
2017-08-14T19:32:22.161Z,4.33
2017-08-14T19:34:49.708Z,4.17
2017-08-14T19:37:17.267Z,5.03
2017-08-14T19:39:44.816Z,4.53
2017-08-14T19:42:12.371Z,5.07
2017-08-14T19:44:40.688Z,9.13
2017-08-14T19:47:08.253Z,5.27
2017-08-14T19:49:35.862Z,5.03
2017-08-14T19:52:03.503Z,4.87
2017-08-14T19:54:31.057Z,5.20
2017-08-14T19:56:58.634Z,5.20
2017-08-14T19:59:26.155Z,5.33
2017-08-14T20:01:53.714Z,5.90
2017-08-14T20:04:21.253Z,5.70
2017-08-14T20:06:49.576Z,5.90
2017-08-14T20:09:17.152Z,4.97
2017-08-14T20:11:44.703Z,5.90
2017-08-14T20:14:12.280Z,6.10
2017-08-14T20:16:39.827Z,5.83
2017-08-14T20:19:07.384Z,6.20
2017-08-14T20:21:34.956Z,6.33
2017-08-14T20:26:36.256Z,6.00
2017-08-14T20:29:03.817Z,5.80
2017-08-14T20:31:31.377Z,6.33
2017-08-14T20:33:58.954Z,5.90
2017-08-14T20:36:26.491Z,6.40
2017-08-14T20:38:54.823Z,6.67
2017-08-14T20:41:22.380Z,6.70
2017-08-14T20:43:49.944Z,6.73
2017-08-14T20:46:17.486Z,6.60
2017-08-14T20:48:45.042Z,6.67
2017-08-14T20:51:12.584Z,7.63
2017-08-14T20:53:40.152Z,6.40
2017-08-14T20:56:07.698Z,6.93
2017-08-14T20:58:35.249Z,6.70
2017-08-14T21:01:03.559Z,6.90
2017-08-14T21:03:31.109Z,7.10
2017-08-14T21:05:58.672Z,6.03
2017-08-14T21:08:26.231Z,7.87
2017-08-14T21:10:53.795Z,7.60
2017-08-14T21:13:21.331Z,8.87
2017-08-14T21:15:49.636Z,6.40
2017-08-14T21:18:17.188Z,6.93
2017-08-14T21:20:44.777Z,6.40
2017-08-14T21:23:12.344Z,6.40
2017-08-14T21:25:39.905Z,6.73
2017-08-14T21:28:07.443Z,6.33
2017-08-14T21:30:34.995Z,6.70
2017-08-14T21:33:02.532Z,7.70
2017-08-14T21:35:30.851Z,6.77
2017-08-14T21:37:58.392Z,6.80
2017-08-14T21:40:25.975Z,6.60
2017-08-14T21:42:53.512Z,6.30
2017-08-14T21:45:34.961Z,7.80
2017-08-14T21:48:02.494Z,7.53
2017-08-14T21:50:30.052Z,7.33
2017-08-14T21:52:57.605Z,7.57
2017-08-14T21:55:25.166Z,7.57
2017-08-14T21:57:52.722Z,7.03
2017-08-14T22:00:20.292Z,7.50
2017-08-14T22:02:47.831Z,7.70
2017-08-14T22:05:15.394Z,7.30
2017-08-14T22:07:42.932Z,7.53
2017-08-14T22:10:10.475Z,7.40
2017-08-14T22:12:38.025Z,7.50
2017-08-14T22:15:05.588Z,6.83
2017-08-14T22:17:33.116Z,7.43
2017-08-14T22:20:00.663Z,7.50
2017-08-14T22:22:28.206Z,7.23
2017-08-14T22:24:55.751Z,8.20
2017-08-14T22:27:23.312Z,6.73
2017-08-14T22:29:50.840Z,6.67
2017-08-14T22:32:18.425Z,7.70
2017-08-14T22:34:45.959Z,7.70
2017-08-14T22:37:13.571Z,8.03
2017-08-14T22:39:41.096Z,7.00
2017-08-14T22:42:08.653Z,6.60
2017-08-14T22:44:36.203Z,7.03
2017-08-14T22:47:03.751Z,7.23
2017-08-14T22:49:31.293Z,6.50
2017-08-14T22:51:58.852Z,7.50
2017-08-14T22:54:26.378Z,7.07
2017-08-14T22:56:53.919Z,7.20
2017-08-14T22:59:21.492Z,7.83
2017-08-14T23:01:49.022Z,6.83
2017-08-14T23:04:16.587Z,6.30
2017-08-14T23:06:44.128Z,8.87
2017-08-14T23:09:11.682Z,7.63
2017-08-14T23:11:39.217Z,7.53
2017-08-14T23:14:06.776Z,12.27
2017-08-14T23:16:34.316Z,7.17
2017-08-14T23:19:02.648Z,6.53
2017-08-14T23:21:30.188Z,6.27
2017-08-14T23:23:57.755Z,7.70
2017-08-14T23:26:25.288Z,8.23
2017-08-14T23:28:52.860Z,7.23
2017-08-14T23:31:20.396Z,7.77
2017-08-14T23:33:47.939Z,7.23
2017-08-14T23:36:16.295Z,6.77
2017-08-14T23:38:43.836Z,6.50
2017-08-14T23:41:11.393Z,6.87
2017-08-14T23:43:38.947Z,7.37
2017-08-14T23:46:06.536Z,7.00
2017-08-14T23:48:34.090Z,6.63
2017-08-14T23:51:01.663Z,7.20
2017-08-14T23:53:29.204Z,7.60
2017-08-14T23:55:56.745Z,7.20
2017-08-14T23:58:24.281Z,7.13
